sensor_id;sensor_type;location;lat;lon;timestamp;pressure;altitude;pressure_sealevel;temperature;humidity
71573;BME280;59408;51.032;9.410;2022-10-15T00:01:25;98315.22;;;11.71;100.00
71573;BME280;59408;51.032;9.410;2022-10-15T00:03:51;98319.13;;;11.70;100.00
71573;BME280;59408;51.032;9.410;2022-10-15T00:06:19;98310.13;;;11.69;100.00
71573;BME280;59408;51.032;9.410;2022-10-15T00:08:47;98307.31;;;11.66;100.00
71573;BME280;59408;51.032;9.410;2022-10-15T00:11:16;98308.06;;;11.63;100.00
71573;BME280;59408;51.032;9.410;2022-10-15T00:13:43;98307.63;;;11.61;100.00
71573;BME280;59408;51.032;9.410;2022-10-15T00:16:12;98306.78;;;11.57;100.00
71573;BME280;59408;51.032;9.410;2022-10-15T00:18:40;98304.03;;;11.57;100.00
71573;BME280;59408;51.032;9.410;2022-10-15T00:21:07;98306.38;;;11.55;100.00
71573;BME280;59408;51.032;9.410;2022-10-15T00:23:34;98309.88;;;11.55;100.00
71573;BME280;59408;51.032;9.410;2022-10-15T00:26:05;98309.81;;;11.52;100.00
71573;BME280;59408;51.032;9.410;2022-10-15T00:28:31;98303.19;;;11.53;100.00
71573;BME280;59408;51.032;9.410;2022-10-15T00:31:01;98300.41;;;11.49;100.00
71573;BME280;59408;51.032;9.410;2022-10-15T00:33:33;98297.66;;;11.49;100.00
71573;BME280;59408;51.032;9.410;2022-10-15T00:36:02;98298.03;;;11.48;100.00
71573;BME280;59408;51.032;9.410;2022-10-15T00:38:29;98295.69;;;11.46;100.00
71573;BME280;59408;51.032;9.410;2022-10-15T00:40:56;98295.25;;;11.44;100.00
71573;BME280;59408;51.032;9.410;2022-10-15T00:43:39;98296.41;;;11.43;100.00
71573;BME280;59408;51.032;9.410;2022-10-15T00:46:11;98300.69;;;11.44;100.00
71573;BME280;59408;51.032;9.410;2022-10-15T00:48:40;98293.66;;;11.43;100.00
71573;BME280;59408;51.032;9.410;2022-10-15T00:51:07;98290.94;;;11.43;100.00
71573;BME280;59408;51.032;9.410;2022-10-15T00:53:34;98295.25;;;11.44;100.00
71573;BME280;59408;51.032;9.410;2022-10-15T00:56:01;98287.41;;;11.43;100.00
71573;BME280;59408;51.032;9.410;2022-10-15T00:58:30;98289.34;;;11.42;100.00
71573;BME280;59408;51.032;9.410;2022-10-15T01:00:59;98278.44;;;11.42;100.00
71573;BME280;59408;51.032;9.410;2022-10-15T01:03:26;98274.13;;;11.41;100.00
71573;BME280;59408;51.032;9.410;2022-10-15T01:05:53;98271.81;;;11.43;100.00
71573;BME280;59408;51.032;9.410;2022-10-15T01:08:20;98272.16;;;11.42;100.00
71573;BME280;59408;51.032;9.410;2022-10-15T01:10:50;98265.13;;;11.41;100.00
71573;BME280;59408;51.032;9.410;2022-10-15T01:13:27;98269.00;;;11.40;100.00
71573;BME280;59408;51.032;9.410;2022-10-15T01:16:01;98268.22;;;11.39;100.00
71573;BME280;59408;51.032;9.410;2022-10-15T01:18:33;98272.88;;;11.38;100.00
71573;BME280;59408;51.032;9.410;2022-10-15T01:21:09;98269.41;;;11.38;100.00
71573;BME280;59408;51.032;9.410;2022-10-15T01:24:24;98259.22;;;11.38;100.00
71573;BME280;59408;51.032;9.410;2022-10-15T01:27:16;98257.28;;;11.39;100.00
71573;BME280;59408;51.032;9.410;2022-10-15T01:33:02;98261.22;;;11.38;100.00
71573;BME280;59408;51.032;9.410;2022-10-15T01:35:36;98249.50;;;11.38;100.00
71573;BME280;59408;51.032;9.410;2022-10-15T01:38:18;98256.09;;;11.36;100.00
71573;BME280;59408;51.032;9.410;2022-10-15T01:40:49;98259.97;;;11.35;100.00
71573;BME280;59408;51.032;9.410;2022-10-15T01:43:21;98251.44;;;11.37;100.00
71573;BME280;59408;51.032;9.410;2022-10-15T01:45:52;98243.59;;;11.35;100.00
71573;BME280;59408;51.032;9.410;2022-10-15T01:48:24;98240.88;;;11.35;100.00
71573;BME280;59408;51.032;9.410;2022-10-15T01:50:54;98250.63;;;11.36;100.00
71573;BME280;59408;51.032;9.410;2022-10-15T01:53:24;98242.44;;;11.36;100.00
71573;BME280;59408;51.032;9.410;2022-10-15T01:55:54;98240.50;;;11.37;100.00
71573;BME280;59408;51.032;9.410;2022-10-15T01:58:22;98239.72;;;11.36;100.00
71573;BME280;59408;51.032;9.410;2022-10-15T02:00:50;98235.84;;;11.38;100.00
71573;BME280;59408;51.032;9.410;2022-10-15T02:03:17;98241.66;;;11.36;100.00
71573;BME280;59408;51.032;9.410;2022-10-15T02:05:49;98240.88;;;11.35;100.00
71573;BME280;59408;51.032;9.410;2022-10-15T02:08:19;98243.25;;;11.37;100.00
71573;BME280;59408;51.032;9.410;2022-10-15T02:10:50;98238.94;;;11.36;100.00
71573;BME280;59408;51.032;9.410;2022-10-15T02:13:23;98237.00;;;11.36;100.00
71573;BME280;59408;51.032;9.410;2022-10-15T02:16:01;98231.53;;;11.36;100.00
71573;BME280;59408;51.032;9.410;2022-10-15T02:18:37;98234.25;;;11.36;100.00
71573;BME280;59408;51.032;9.410;2022-10-15T02:21:10;98232.69;;;11.35;100.00
71573;BME280;59408;51.032;9.410;2022-10-15T02:23:42;98231.88;;;11.35;100.00
71573;BME280;59408;51.032;9.410;2022-10-15T02:26:11;98228.00;;;11.36;100.00
71573;BME280;59408;51.032;9.410;2022-10-15T02:28:43;98222.53;;;11.36;100.00
71573;BME280;59408;51.032;9.410;2022-10-15T02:31:13;98221.75;;;11.35;100.00
71573;BME280;59408;51.032;9.410;2022-10-15T02:33:40;98228.38;;;11.34;100.00
71573;BME280;59408;51.032;9.410;2022-10-15T02:36:09;98236.56;;;11.34;100.00
71573;BME280;59408;51.032;9.410;2022-10-15T02:38:37;98228.38;;;11.34;100.00
71573;BME280;59408;51.032;9.410;2022-10-15T02:41:06;98228.38;;;11.34;100.00
71573;BME280;59408;51.032;9.410;2022-10-15T02:43:34;98225.63;;;11.34;100.00
71573;BME280;59408;51.032;9.410;2022-10-15T02:46:01;98224.06;;;11.33;100.00
71573;BME280;59408;51.032;9.410;2022-10-15T02:48:27;98226.78;;;11.33;100.00
71573;BME280;59408;51.032;9.410;2022-10-15T02:50:54;98222.91;;;11.34;100.00
71573;BME280;59408;51.032;9.410;2022-10-15T02:53:22;98219.75;;;11.32;100.00
71573;BME280;59408;51.032;9.410;2022-10-15T02:55:49;98215.06;;;11.33;100.00
71573;BME280;59408;51.032;9.410;2022-10-15T02:58:15;98205.31;;;11.32;100.00
71573;BME280;59408;51.032;9.410;2022-10-15T03:00:42;98200.63;;;11.32;100.00
71573;BME280;59408;51.032;9.410;2022-10-15T03:03:09;98208.81;;;11.32;100.00
71573;BME280;59408;51.032;9.410;2022-10-15T03:05:36;98203.78;;;11.34;100.00
71573;BME280;59408;51.032;9.410;2022-10-15T03:08:02;98203.38;;;11.32;100.00
71573;BME280;59408;51.032;9.410;2022-10-15T03:10:30;98211.19;;;11.34;100.00
71573;BME280;59408;51.032;9.410;2022-10-15T03:13:01;98216.28;;;11.35;100.00
71573;BME280;59408;51.032;9.410;2022-10-15T03:15:27;98214.34;;;11.36;100.00
71573;BME280;59408;51.032;9.410;2022-10-15T03:17:54;98208.91;;;11.36;100.00
71573;BME280;59408;51.032;9.410;2022-10-15T03:20:21;98216.72;;;11.38;100.00
71573;BME280;59408;51.032;9.410;2022-10-15T03:22:47;98206.59;;;11.38;100.00
71573;BME280;59408;51.032;9.410;2022-10-15T03:25:14;98203.06;;;11.38;100.00
71573;BME280;59408;51.032;9.410;2022-10-15T03:27:42;98209.31;;;11.38;100.00
71573;BME280;59408;51.032;9.410;2022-10-15T03:30:09;98192.16;;;11.38;100.00
71573;BME280;59408;51.032;9.410;2022-10-15T03:32:36;98203.88;;;11.38;100.00
71573;BME280;59408;51.032;9.410;2022-10-15T03:35:03;98203.06;;;11.38;100.00
71573;BME280;59408;51.032;9.410;2022-10-15T03:37:29;98211.66;;;11.40;100.00
71573;BME280;59408;51.032;9.410;2022-10-15T03:39:56;98201.53;;;11.40;100.00
71573;BME280;59408;51.032;9.410;2022-10-15T03:42:22;98212.81;;;11.38;100.00
71573;BME280;59408;51.032;9.410;2022-10-15T03:44:51;98216.34;;;11.39;100.00
71573;BME280;59408;51.032;9.410;2022-10-15T03:47:17;98214.78;;;11.38;100.00
71573;BME280;59408;51.032;9.410;2022-10-15T03:49:44;98225.72;;;11.38;100.00
71573;BME280;59408;51.032;9.410;2022-10-15T03:52:11;98230.38;;;11.38;100.00
71573;BME280;59408;51.032;9.410;2022-10-15T03:54:37;98230.38;;;11.38;100.00
71573;BME280;59408;51.032;9.410;2022-10-15T03:57:04;98229.19;;;11.38;100.00
71573;BME280;59408;51.032;9.410;2022-10-15T03:59:30;98228.84;;;11.40;100.00
71573;BME280;59408;51.032;9.410;2022-10-15T04:01:58;98226.91;;;11.41;100.00
71573;BME280;59408;51.032;9.410;2022-10-15T04:04:25;98228.84;;;11.40;100.00
71573;BME280;59408;51.032;9.410;2022-10-15T04:06:52;98231.22;;;11.42;100.00
71573;BME280;59408;51.032;9.410;2022-10-15T04:09:18;98231.28;;;11.45;100.00
71573;BME280;59408;51.032;9.410;2022-10-15T04:11:45;98239.03;;;11.43;100.00
71573;BME280;59408;51.032;9.410;2022-10-15T04:14:11;98238.69;;;11.45;100.00
71573;BME280;59408;51.032;9.410;2022-10-15T04:16:38;98247.31;;;11.47;100.00
71573;BME280;59408;51.032;9.410;2022-10-15T04:19:05;98244.59;;;11.47;100.00
71573;BME280;59408;51.032;9.410;2022-10-15T04:21:36;98237.53;;;11.46;100.00
71573;BME280;59408;51.032;9.410;2022-10-15T04:24:03;98237.53;;;11.46;100.00
71573;BME280;59408;51.032;9.410;2022-10-15T04:26:30;98244.59;;;11.47;100.00
71573;BME280;59408;51.032;9.410;2022-10-15T04:28:56;98245.72;;;11.46;100.00
71573;BME280;59408;51.032;9.410;2022-10-15T04:31:23;98240.28;;;11.46;100.00
71573;BME280;59408;51.032;9.410;2022-10-15T04:33:49;98242.22;;;11.45;100.00
71573;BME280;59408;51.032;9.410;2022-10-15T04:36:17;98245.28;;;11.44;100.00
71573;BME280;59408;51.032;9.410;2022-10-15T04:38:44;98236.31;;;11.43;100.00
71573;BME280;59408;51.032;9.410;2022-10-15T04:41:11;98235.16;;;11.44;100.00
71573;BME280;59408;51.032;9.410;2022-10-15T04:43:38;98234.03;;;11.45;100.00
71573;BME280;59408;51.032;9.410;2022-10-15T04:46:07;98227.75;;;11.45;100.00
71573;BME280;59408;51.032;9.410;2022-10-15T04:48:35;98232.44;;;11.44;100.00
71573;BME280;59408;51.032;9.410;2022-10-15T04:51:08;98231.66;;;11.44;100.00
71573;BME280;59408;51.032;9.410;2022-10-15T04:53:38;98228.13;;;11.43;100.00
71573;BME280;59408;51.032;9.410;2022-10-15T04:56:06;98226.53;;;11.42;100.00
71573;BME280;59408;51.032;9.410;2022-10-15T04:58:34;98225.75;;;11.42;100.00
71573;BME280;59408;51.032;9.410;2022-10-15T05:01:02;98226.91;;;11.41;100.00
71573;BME280;59408;51.032;9.410;2022-10-15T05:03:30;98218.72;;;11.41;100.00
71573;BME280;59408;51.032;9.410;2022-10-15T05:05:59;98205.41;;;11.39;100.00
71573;BME280;59408;51.032;9.410;2022-10-15T05:08:26;98217.91;;;11.40;100.00
71573;BME280;59408;51.032;9.410;2022-10-15T05:10:54;98233.50;;;11.40;100.00
71573;BME280;59408;51.032;9.410;2022-10-15T05:13:21;98221.44;;;11.41;100.00
71573;BME280;59408;51.032;9.410;2022-10-15T05:15:47;98231.22;;;11.42;100.00
71573;BME280;59408;51.032;9.410;2022-10-15T05:18:14;98234.72;;;11.42;100.00
71573;BME280;59408;51.032;9.410;2022-10-15T05:20:40;98242.94;;;11.42;100.00
71573;BME280;59408;51.032;9.410;2022-10-15T05:23:07;98244.16;;;11.45;100.00
71573;BME280;59408;51.032;9.410;2022-10-15T05:25:33;98246.53;;;11.46;100.00
71573;BME280;59408;51.032;9.410;2022-10-15T05:28:01;98250.44;;;11.49;100.00
71573;BME280;59408;51.032;9.410;2022-10-15T05:30:28;98252.81;;;11.50;100.00
71573;BME280;59408;51.032;9.410;2022-10-15T05:32:55;98259.84;;;11.51;100.00
71573;BME280;59408;51.032;9.410;2022-10-15T05:35:21;98266.13;;;11.52;100.00
71573;BME280;59408;51.032;9.410;2022-10-15T05:37:48;98263.03;;;11.53;100.00
71573;BME280;59408;51.032;9.410;2022-10-15T05:40:15;98266.53;;;11.54;100.00
71573;BME280;59408;51.032;9.410;2022-10-15T05:42:50;98273.22;;;11.56;100.00
71573;BME280;59408;51.032;9.410;2022-10-15T05:45:18;98277.47;;;11.54;100.00
71573;BME280;59408;51.032;9.410;2022-10-15T05:47:44;98277.47;;;11.54;100.00
71573;BME280;59408;51.032;9.410;2022-10-15T05:50:11;98267.34;;;11.54;100.00
71573;BME280;59408;51.032;9.410;2022-10-15T05:52:37;98273.16;;;11.53;100.00
71573;BME280;59408;51.032;9.410;2022-10-15T05:55:04;98273.53;;;11.51;100.00
71573;BME280;59408;51.032;9.410;2022-10-15T05:57:31;98278.63;;;11.53;100.00
71573;BME280;59408;51.032;9.410;2022-10-15T05:59:58;98264.19;;;11.52;100.00
71573;BME280;59408;51.032;9.410;2022-10-15T06:02:26;98255.97;;;11.52;100.00
71573;BME280;59408;51.032;9.410;2022-10-15T06:04:53;98253.25;;;11.52;100.00
71573;BME280;59408;51.032;9.410;2022-10-15T06:07:19;98255.97;;;11.52;100.00
71573;BME280;59408;51.032;9.410;2022-10-15T06:09:47;98249.38;;;11.53;100.00
71573;BME280;59408;51.032;9.410;2022-10-15T06:12:13;98244.34;;;11.55;100.00
71573;BME280;59408;51.032;9.410;2022-10-15T06:14:40;98244.34;;;11.55;100.00
71573;BME280;59408;51.032;9.410;2022-10-15T06:17:06;98261.13;;;11.57;100.00
71573;BME280;59408;51.032;9.410;2022-10-15T06:19:34;98252.56;;;11.59;100.00
71573;BME280;59408;51.032;9.410;2022-10-15T06:22:00;98265.50;;;11.62;100.00
71573;BME280;59408;51.032;9.410;2022-10-15T06:24:27;98256.97;;;11.63;100.00
71573;BME280;59408;51.032;9.410;2022-10-15T06:26:53;98262.84;;;11.65;100.00
71573;BME280;59408;51.032;9.410;2022-10-15T06:29:20;98278.84;;;11.67;100.00
71573;BME280;59408;51.032;9.410;2022-10-15T06:31:46;98295.31;;;11.70;100.00
71573;BME280;59408;51.032;9.410;2022-10-15T06:34:13;98307.03;;;11.71;100.00
71573;BME280;59408;51.032;9.410;2022-10-15T06:36:41;98315.31;;;11.74;100.00
71573;BME280;59408;51.032;9.410;2022-10-15T06:39:08;98309.44;;;11.76;100.00
71573;BME280;59408;51.032;9.410;2022-10-15T06:41:34;98322.75;;;11.78;100.00
71573;BME280;59408;51.032;9.410;2022-10-15T06:44:01;98321.97;;;11.77;100.00
71573;BME280;59408;51.032;9.410;2022-10-15T06:46:27;98327.06;;;11.79;100.00
71573;BME280;59408;51.032;9.410;2022-10-15T06:48:54;98324.34;;;11.79;100.00
71573;BME280;59408;51.032;9.410;2022-10-15T06:51:20;98331.75;;;11.78;100.00
71573;BME280;59408;51.032;9.410;2022-10-15T06:53:48;98333.25;;;11.75;100.00
71573;BME280;59408;51.032;9.410;2022-10-15T06:56:15;98340.31;;;11.77;100.00
71573;BME280;59408;51.032;9.410;2022-10-15T06:58:41;98342.63;;;11.74;100.00
71573;BME280;59408;51.032;9.410;2022-10-15T07:01:09;98342.63;;;11.74;100.00
71573;BME280;59408;51.032;9.410;2022-10-15T07:03:35;98337.56;;;11.77;100.00
71573;BME280;59408;51.032;9.410;2022-10-15T07:06:03;98341.16;;;11.81;100.00
71573;BME280;59408;51.032;9.410;2022-10-15T07:08:29;98343.59;;;11.86;100.00
71573;BME280;59408;51.032;9.410;2022-10-15T07:10:59;98351.06;;;11.89;100.00
71573;BME280;59408;51.032;9.410;2022-10-15T07:13:26;98360.13;;;11.93;100.00
71573;BME280;59408;51.032;9.410;2022-10-15T07:15:52;98347.28;;;11.97;100.00
71573;BME280;59408;51.032;9.410;2022-10-15T07:18:19;98338.41;;;12.03;100.00
71573;BME280;59408;51.032;9.410;2022-10-15T07:20:46;98334.59;;;12.08;100.00
71573;BME280;59408;51.032;9.410;2022-10-15T07:23:12;98342.25;;;12.22;100.00
71573;BME280;59408;51.032;9.410;2022-10-15T07:25:39;98355.69;;;12.30;100.00
71573;BME280;59408;51.032;9.410;2022-10-15T07:28:07;98364.28;;;12.29;100.00
71573;BME280;59408;51.032;9.410;2022-10-15T07:30:33;98352.91;;;12.27;100.00
71573;BME280;59408;51.032;9.410;2022-10-15T07:33:00;98363.09;;;12.30;100.00
71573;BME280;59408;51.032;9.410;2022-10-15T07:35:27;98369.00;;;12.32;100.00
71573;BME280;59408;51.032;9.410;2022-10-15T07:37:53;98366.00;;;12.40;100.00
71573;BME280;59408;51.032;9.410;2022-10-15T07:40:20;98361.13;;;12.53;100.00
71573;BME280;59408;51.032;9.410;2022-10-15T07:42:51;98366.34;;;12.62;100.00
71573;BME280;59408;51.032;9.410;2022-10-15T07:45:19;98362.97;;;12.72;100.00
71573;BME280;59408;51.032;9.410;2022-10-15T07:47:46;98368.00;;;12.70;100.00
71573;BME280;59408;51.032;9.410;2022-10-15T07:50:12;98372.28;;;12.67;100.00
71573;BME280;59408;51.032;9.410;2022-10-15T07:52:39;98365.13;;;12.59;100.00
71573;BME280;59408;51.032;9.410;2022-10-15T07:55:06;98375.69;;;12.61;100.00
71573;BME280;59408;51.032;9.410;2022-10-15T07:57:33;98383.91;;;12.61;100.00
71573;BME280;59408;51.032;9.410;2022-10-15T07:59:59;98386.72;;;12.64;100.00
71573;BME280;59408;51.032;9.410;2022-10-15T08:02:27;98388.41;;;12.76;100.00
71573;BME280;59408;51.032;9.410;2022-10-15T08:04:54;98399.53;;;12.86;100.00
71573;BME280;59408;51.032;9.410;2022-10-15T08:07:20;98405.09;;;12.94;100.00
71573;BME280;59408;51.032;9.410;2022-10-15T08:09:47;98403.47;;;12.89;100.00
71573;BME280;59408;51.032;9.410;2022-10-15T08:12:13;98408.16;;;12.89;100.00
71573;BME280;59408;51.032;9.410;2022-10-15T08:14:40;98411.38;;;12.94;100.00
71573;BME280;59408;51.032;9.410;2022-10-15T08:17:07;98404.00;;;12.98;100.00
71573;BME280;59408;51.032;9.410;2022-10-15T08:19:34;98400.28;;;13.13;100.00
71573;BME280;59408;51.032;9.410;2022-10-15T08:22:01;98409.00;;;13.22;100.00
71573;BME280;59408;51.032;9.410;2022-10-15T08:24:28;98408.78;;;13.35;100.00
71573;BME280;59408;51.032;9.410;2022-10-15T08:26:56;98403.13;;;13.47;100.00
71573;BME280;59408;51.032;9.410;2022-10-15T08:29:22;98407.22;;;13.64;100.00
71573;BME280;59408;51.032;9.410;2022-10-15T08:31:49;98399.44;;;13.69;100.00
71573;BME280;59408;51.032;9.410;2022-10-15T08:34:15;98404.72;;;13.51;99.10
71573;BME280;59408;51.032;9.410;2022-10-15T08:36:43;98406.25;;;13.49;98.82
71573;BME280;59408;51.032;9.410;2022-10-15T08:39:10;98411.72;;;13.49;100.00
71573;BME280;59408;51.032;9.410;2022-10-15T08:41:39;98394.13;;;13.50;100.00
71573;BME280;59408;51.032;9.410;2022-10-15T08:44:12;98410.63;;;13.53;100.00
71573;BME280;59408;51.032;9.410;2022-10-15T08:46:42;98411.78;;;13.52;100.00
71573;BME280;59408;51.032;9.410;2022-10-15T08:49:19;98406.44;;;13.67;100.00
71573;BME280;59408;51.032;9.410;2022-10-15T08:51:55;98411.25;;;13.73;99.83
71573;BME280;59408;51.032;9.410;2022-10-15T08:54:24;98410.03;;;13.71;100.00
71573;BME280;59408;51.032;9.410;2022-10-15T08:56:53;98407.34;;;13.74;100.00
71573;BME280;59408;51.032;9.410;2022-10-15T08:59:29;98413.13;;;13.66;100.00
71573;BME280;59408;51.032;9.410;2022-10-15T09:02:01;98408.16;;;13.78;100.00
71573;BME280;59408;51.032;9.410;2022-10-15T09:04:31;98424.72;;;13.89;100.00
71573;BME280;59408;51.032;9.410;2022-10-15T09:07:08;98425.13;;;13.91;100.00
71573;BME280;59408;51.032;9.410;2022-10-15T09:09:42;98421.72;;;14.01;97.29
71573;BME280;59408;51.032;9.410;2022-10-15T09:12:21;98423.53;;;14.27;98.56
71573;BME280;59408;51.032;9.410;2022-10-15T09:14:55;98417.63;;;14.25;96.57
71573;BME280;59408;51.032;9.410;2022-10-15T09:17:24;98421.63;;;14.34;94.95
71573;BME280;59408;51.032;9.410;2022-10-15T09:19:53;98419.63;;;14.31;96.25
71573;BME280;59408;51.032;9.410;2022-10-15T09:22:24;98422.06;;;14.37;93.95
71573;BME280;59408;51.032;9.410;2022-10-15T09:24:52;98418.53;;;14.40;93.54
71573;BME280;59408;51.032;9.410;2022-10-15T09:27:26;98419.31;;;14.37;93.52
71573;BME280;59408;51.032;9.410;2022-10-15T09:30:02;98415.41;;;14.38;95.32
71573;BME280;59408;51.032;9.410;2022-10-15T09:32:34;98417.41;;;14.44;91.92
71573;BME280;59408;51.032;9.410;2022-10-15T09:35:09;98415.88;;;14.47;91.93
71573;BME280;59408;51.032;9.410;2022-10-15T09:37:48;98419.84;;;14.53;92.27
71573;BME280;59408;51.032;9.410;2022-10-15T09:40:26;98422.41;;;14.79;92.58
71573;BME280;59408;51.032;9.410;2022-10-15T09:42:56;98422.81;;;14.81;90.59
71573;BME280;59408;51.032;9.410;2022-10-15T09:45:24;98422.31;;;15.27;89.72
71573;BME280;59408;51.032;9.410;2022-10-15T09:47:51;98422.69;;;15.25;88.76
71573;BME280;59408;51.032;9.410;2022-10-15T09:50:21;98420.53;;;14.94;89.37
71573;BME280;59408;51.032;9.410;2022-10-15T09:53:01;98414.72;;;15.02;89.77
71573;BME280;59408;51.032;9.410;2022-10-15T09:55:34;98412.13;;;15.31;90.23
71573;BME280;59408;51.032;9.410;2022-10-15T09:58:06;98410.94;;;15.28;87.46
71573;BME280;59408;51.032;9.410;2022-10-15T10:00:52;98414.88;;;15.31;88.81
71573;BME280;59408;51.032;9.410;2022-10-15T10:03:21;98425.94;;;15.48;88.16
71573;BME280;59408;51.032;9.410;2022-10-15T10:05:48;98426.34;;;15.51;87.31
71573;BME280;59408;51.032;9.410;2022-10-15T10:08:19;98420.78;;;15.36;87.34
71573;BME280;59408;51.032;9.410;2022-10-15T10:10:53;98417.03;;;15.66;87.49
71573;BME280;59408;51.032;9.410;2022-10-15T10:13:23;98418.53;;;15.56;87.08
71573;BME280;59408;51.032;9.410;2022-10-15T10:15:51;98418.22;;;15.75;87.36
71573;BME280;59408;51.032;9.410;2022-10-15T10:18:25;98410.03;;;15.93;87.38
71573;BME280;59408;51.032;9.410;2022-10-15T10:20:54;98414.72;;;15.82;85.40
71573;BME280;59408;51.032;9.410;2022-10-15T10:23:24;98420.19;;;15.71;86.04
71573;BME280;59408;51.032;9.410;2022-10-15T10:25:51;98414.25;;;15.62;86.26
71573;BME280;59408;51.032;9.410;2022-10-15T10:28:26;98421.72;;;15.62;88.08
71573;BME280;59408;51.032;9.410;2022-10-15T10:30:59;98426.56;;;16.11;86.31
71573;BME280;59408;51.032;9.410;2022-10-15T10:33:29;98434.44;;;16.16;83.88
71573;BME280;59408;51.032;9.410;2022-10-15T10:35:57;98432.50;;;16.20;84.96
71573;BME280;59408;51.032;9.410;2022-10-15T10:38:29;98425.41;;;16.33;84.77
71573;BME280;59408;51.032;9.410;2022-10-15T10:40:59;98413.22;;;16.59;82.54
71573;BME280;59408;51.032;9.410;2022-10-15T10:43:28;98421.50;;;16.59;83.46
71573;BME280;59408;51.032;9.410;2022-10-15T10:45:58;98422.25;;;16.13;83.97
71573;BME280;59408;51.032;9.410;2022-10-15T10:48:28;98417.50;;;16.00;84.93
71573;BME280;59408;51.032;9.410;2022-10-15T10:51:05;98422.13;;;15.71;85.06
71573;BME280;59408;51.032;9.410;2022-10-15T10:53:43;98426.72;;;15.49;86.25
71573;BME280;59408;51.032;9.410;2022-10-15T10:56:11;98412.97;;;15.38;85.78
71573;BME280;59408;51.032;9.410;2022-10-15T10:58:38;98414.47;;;15.29;86.56
71573;BME280;59408;51.032;9.410;2022-10-15T11:01:05;98417.31;;;15.46;87.22
71573;BME280;59408;51.032;9.410;2022-10-15T11:03:34;98419.22;;;15.39;86.58
71573;BME280;59408;51.032;9.410;2022-10-15T11:09:01;98414.44;;;15.22;88.71
71573;BME280;59408;51.032;9.410;2022-10-15T11:11:36;98406.63;;;15.27;87.90
71573;BME280;59408;51.032;9.410;2022-10-15T11:14:18;98407.09;;;15.43;88.25
71573;BME280;59408;51.032;9.410;2022-10-15T11:16:53;98408.63;;;15.41;88.10
71573;BME280;59408;51.032;9.410;2022-10-15T11:19:28;98399.22;;;15.38;87.37
71573;BME280;59408;51.032;9.410;2022-10-15T11:22:28;98400.41;;;15.48;88.44
71573;BME280;59408;51.032;9.410;2022-10-15T11:25:07;98412.97;;;15.45;88.82
71573;BME280;59408;51.032;9.410;2022-10-15T11:27:53;98397.66;;;15.48;88.22
71573;BME280;59408;51.032;9.410;2022-10-15T11:30:48;98405.63;;;15.67;87.61
71573;BME280;59408;51.032;9.410;2022-10-15T11:33:29;98400.81;;;15.46;87.27
71573;BME280;59408;51.032;9.410;2022-10-15T11:36:09;98398.88;;;15.54;87.54
71573;BME280;59408;51.032;9.410;2022-10-15T11:38:44;98401.97;;;15.38;87.86
71573;BME280;59408;51.032;9.410;2022-10-15T11:41:24;98397.63;;;15.41;87.81
71573;BME280;59408;51.032;9.410;2022-10-15T11:44:20;98394.88;;;15.41;88.17
71573;BME280;59408;51.032;9.410;2022-10-15T11:47:00;98387.47;;;15.45;88.86
71573;BME280;59408;51.032;9.410;2022-10-15T11:49:41;98394.56;;;15.53;88.05
71573;BME280;59408;51.032;9.410;2022-10-15T11:52:19;98389.06;;;15.53;88.91
71573;BME280;59408;51.032;9.410;2022-10-15T11:54:59;98394.97;;;15.59;89.20
71573;BME280;59408;51.032;9.410;2022-10-15T11:57:31;98393.72;;;15.38;89.18
71573;BME280;59408;51.032;9.410;2022-10-15T12:00:02;98390.13;;;15.31;89.07
71573;BME280;59408;51.032;9.410;2022-10-15T12:02:34;98389.31;;;15.23;89.32
71573;BME280;59408;51.032;9.410;2022-10-15T12:05:05;98382.63;;;15.21;89.66
71573;BME280;59408;51.032;9.410;2022-10-15T12:07:36;98388.09;;;15.14;90.56
71573;BME280;59408;51.032;9.410;2022-10-15T12:10:12;98375.16;;;15.21;89.51
71573;BME280;59408;51.032;9.410;2022-10-15T12:12:48;98378.72;;;15.22;89.92
71573;BME280;59408;51.032;9.410;2022-10-15T12:15:23;98377.97;;;15.32;90.07
71573;BME280;59408;51.032;9.410;2022-10-15T12:18:01;98367.00;;;15.35;88.24
71573;BME280;59408;51.032;9.410;2022-10-15T12:20:30;98368.63;;;15.58;87.25
71573;BME280;59408;51.032;9.410;2022-10-15T12:22:57;98364.44;;;15.96;86.02
71573;BME280;59408;51.032;9.410;2022-10-15T12:25:44;98363.69;;;16.16;85.77
71573;BME280;59408;51.032;9.410;2022-10-15T12:28:23;98368.78;;;16.07;85.42
71573;BME280;59408;51.032;9.410;2022-10-15T12:30:56;98364.44;;;15.92;86.66
71573;BME280;59408;51.032;9.410;2022-10-15T12:33:29;98360.88;;;15.88;87.09
71573;BME280;59408;51.032;9.410;2022-10-15T12:35:58;98349.84;;;15.70;86.44
71573;BME280;59408;51.032;9.410;2022-10-15T12:38:28;98360.47;;;15.75;87.50
71573;BME280;59408;51.032;9.410;2022-10-15T12:40:58;98362.47;;;15.75;87.87
71573;BME280;59408;51.032;9.410;2022-10-15T12:43:28;98360.84;;;15.70;88.07
71573;BME280;59408;51.032;9.410;2022-10-15T12:45:58;98353.00;;;15.72;87.16
71573;BME280;59408;51.032;9.410;2022-10-15T12:48:36;98359.31;;;15.83;87.43
71573;BME280;59408;51.032;9.410;2022-10-15T12:51:39;98341.25;;;16.04;86.00
71573;BME280;59408;51.032;9.410;2022-10-15T12:54:34;98344.41;;;15.92;86.96
71573;BME280;59408;51.032;9.410;2022-10-15T12:57:13;98345.16;;;15.81;87.42
71573;BME280;59408;51.032;9.410;2022-10-15T12:59:54;98346.75;;;15.86;88.56
71573;BME280;59408;51.032;9.410;2022-10-15T13:02:35;98340.06;;;15.80;88.74
71573;BME280;59408;51.032;9.410;2022-10-15T13:05:03;98345.59;;;15.91;87.89
71573;BME280;59408;51.032;9.410;2022-10-15T13:07:31;98336.97;;;16.10;86.44
71573;BME280;59408;51.032;9.410;2022-10-15T13:10:01;98333.00;;;16.39;85.63
71573;BME280;59408;51.032;9.410;2022-10-15T13:12:28;98332.22;;;16.56;85.74
71573;BME280;59408;51.032;9.410;2022-10-15T13:14:59;98327.88;;;16.55;85.99